Litchfield, California
Current Conditions -  °F | °C
As of 11:55 AM on Friday 24 Oct 2014 (Local Time) from KRTS Reporting Station
Clear Clear  
Wind Chill: 68°   Ceiling: Unl
Heat Index: 68°   Visibility: 10mi
Dew Point: 21°   Wind: 7mph
Humidity: 17%   Direction: 80°E
Pressure: 30.07"   Gusts: NA
Location:  40.38°N, 120.39°W
Report Text: KRTS 241855Z AUTO 08006KT 10SM CLR 20/M06 A3007 RMK AO2
Loading
Personal Weather Stations






























Interactive Weather Map New forecast layout! Learn more

10-Day Weather Forecast

Advertisements
Track Severe Weather on mobile